createdAt,value
2018-12-21T00:00:10.628Z,31.83
2018-12-21T00:02:40.360Z,32.37
2018-12-21T00:05:10.053Z,33.00
2018-12-21T00:07:39.940Z,40.40
2018-12-21T00:10:09.726Z,45.53
2018-12-21T00:12:39.557Z,28.83
2018-12-21T00:15:09.356Z,35.20
2018-12-21T00:17:39.062Z,51.43
2018-12-21T00:20:10.856Z,38.30
2018-12-21T00:22:40.717Z,28.63
2018-12-21T00:25:10.356Z,38.90
2018-12-21T00:27:40.153Z,26.83
2018-12-21T00:30:12.418Z,31.73
2018-12-21T00:32:47.960Z,40.00
2018-12-21T00:35:22.740Z,24.37
2018-12-21T00:37:57.610Z,36.60
2018-12-21T00:40:32.258Z,42.20
2018-12-21T00:43:08.029Z,31.80
2018-12-21T00:45:41.987Z,36.07
2018-12-21T00:48:11.912Z,40.33
2018-12-21T00:50:41.620Z,52.17
2018-12-21T00:53:12.060Z,56.20
2018-12-21T00:55:41.706Z,48.60
2018-12-21T00:58:11.347Z,52.13
2018-12-21T01:00:41.077Z,43.17
2018-12-21T01:03:10.854Z,37.50
2018-12-21T01:05:40.711Z,53.87
2018-12-21T01:08:10.889Z,51.40
2018-12-21T01:10:40.600Z,39.80
2018-12-21T01:13:11.943Z,43.30
2018-12-21T01:15:42.003Z,25.20
2018-12-21T01:18:11.826Z,22.43
2018-12-21T01:20:41.495Z,22.67
2018-12-21T01:23:11.180Z,29.00
2018-12-21T01:25:40.732Z,33.57
2018-12-21T01:28:10.462Z,24.93
2018-12-21T01:30:40.214Z,32.30
2018-12-21T01:33:10.132Z,30.47
2018-12-21T01:35:39.825Z,18.90
2018-12-21T01:38:09.627Z,26.27
2018-12-21T01:40:39.322Z,23.77
2018-12-21T01:43:09.094Z,32.73
2018-12-21T01:45:38.896Z,30.20
2018-12-21T01:48:08.594Z,11.83
2018-12-21T01:50:38.284Z,19.53
2018-12-21T01:53:07.921Z,18.17
2018-12-21T01:55:37.566Z,14.40
2018-12-21T01:58:07.299Z,24.30
2018-12-21T02:00:37.039Z,24.30
2018-12-21T02:03:06.836Z,24.33
2018-12-21T02:05:36.553Z,12.33
2018-12-21T02:08:06.301Z,30.77
2018-12-21T02:10:36.092Z,15.13
2018-12-21T02:13:05.816Z,23.13
2018-12-21T02:15:35.641Z,18.90
2018-12-21T02:18:05.325Z,27.50
2018-12-21T02:20:35.058Z,25.43
2018-12-21T02:23:04.780Z,23.17
2018-12-21T02:25:34.483Z,20.23
2018-12-21T02:28:04.215Z,18.90
2018-12-21T02:30:33.965Z,25.63
2018-12-21T02:33:03.733Z,22.93
2018-12-21T02:35:33.827Z,20.60
2018-12-21T02:38:03.394Z,26.90
2018-12-21T02:40:32.941Z,11.10
2018-12-21T02:43:02.485Z,20.07
2018-12-21T02:45:32.222Z,15.00
2018-12-21T02:48:02.011Z,12.63
2018-12-21T02:50:31.718Z,8.80
2018-12-21T02:53:01.442Z,18.23
2018-12-21T02:55:31.076Z,12.37
2018-12-21T02:58:00.816Z,21.57
2018-12-21T03:00:30.371Z,14.80
2018-12-21T03:03:00.056Z,25.37
2018-12-21T03:05:29.784Z,16.50
2018-12-21T03:07:59.511Z,19.23
2018-12-21T03:10:29.234Z,24.17
2018-12-21T03:12:58.977Z,17.40
2018-12-21T03:15:28.691Z,18.00
2018-12-21T03:17:58.398Z,13.80
2018-12-21T03:20:28.140Z,24.70
2018-12-21T03:22:57.831Z,19.97
2018-12-21T03:25:27.546Z,18.00
2018-12-21T03:27:57.273Z,13.33
2018-12-21T03:30:27.018Z,23.27
2018-12-21T03:32:56.766Z,18.17
2018-12-21T03:35:26.513Z,28.43
2018-12-21T03:37:56.420Z,27.23
2018-12-21T03:40:26.129Z,24.43
2018-12-21T03:42:55.857Z,21.73
2018-12-21T03:45:25.653Z,16.73
2018-12-21T03:47:55.318Z,26.10
2018-12-21T03:50:25.134Z,27.50
2018-12-21T03:52:54.832Z,31.53
2018-12-21T03:55:24.653Z,22.90
2018-12-21T03:57:54.336Z,20.83
2018-12-21T04:00:24.018Z,22.17
2018-12-21T04:02:53.782Z,22.47
2018-12-21T04:05:23.564Z,20.70
2018-12-21T04:07:53.282Z,25.80
2018-12-21T04:10:22.987Z,39.87
2018-12-21T04:12:52.652Z,26.17
2018-12-21T04:15:22.244Z,16.70
2018-12-21T04:17:51.966Z,23.57
2018-12-21T04:20:21.695Z,32.80
2018-12-21T04:22:51.469Z,26.37
2018-12-21T04:25:21.242Z,27.03
2018-12-21T04:27:51.019Z,25.57
2018-12-21T04:30:20.814Z,26.77
2018-12-21T04:32:50.465Z,17.93
2018-12-21T04:35:20.268Z,26.13
2018-12-21T04:37:49.973Z,25.20
2018-12-21T04:40:20.008Z,29.43
2018-12-21T04:42:49.575Z,23.23
2018-12-21T04:45:19.389Z,12.80
2018-12-21T04:47:49.175Z,26.33
2018-12-21T04:50:18.908Z,30.03
2018-12-21T04:52:48.701Z,31.07
2018-12-21T04:55:18.450Z,24.60
2018-12-21T04:57:48.200Z,23.83
2018-12-21T05:00:17.959Z,23.80
2018-12-21T05:02:47.667Z,20.57
2018-12-21T05:05:17.327Z,36.93
2018-12-21T05:07:46.967Z,25.30
2018-12-21T05:10:16.851Z,18.43
2018-12-21T05:12:46.539Z,26.63
2018-12-21T05:15:16.246Z,22.63
2018-12-21T05:17:45.954Z,23.83
2018-12-21T05:20:15.606Z,39.17
2018-12-21T05:22:52.282Z,22.93
2018-12-21T05:25:17.115Z,35.30
2018-12-21T05:27:46.901Z,36.27
2018-12-21T05:30:16.546Z,26.73
2018-12-21T05:32:47.462Z,26.20
2018-12-21T05:35:17.221Z,83.17
2018-12-21T05:37:47.149Z,560.67
2018-12-21T05:40:16.872Z,44.17
2018-12-21T05:42:47.679Z,64.63
2018-12-21T05:45:17.380Z,106.63
2018-12-21T05:47:47.125Z,248.77
2018-12-21T05:50:16.896Z,26.80
2018-12-21T05:52:46.727Z,268.47
2018-12-21T05:55:16.507Z,81.00
2018-12-21T05:57:46.260Z,182.10
2018-12-21T06:00:15.872Z,44.07
2018-12-21T06:02:45.552Z,33.80
2018-12-21T06:05:15.334Z,29.30
2018-12-21T06:07:44.903Z,32.23
2018-12-21T06:10:14.692Z,30.07
2018-12-21T06:12:44.366Z,41.30
2018-12-21T06:15:14.138Z,32.80
2018-12-21T06:17:43.909Z,47.23
2018-12-21T06:20:13.566Z,32.83
2018-12-21T06:22:43.364Z,37.10
2018-12-21T06:25:13.098Z,37.97
2018-12-21T06:27:42.920Z,34.70
2018-12-21T06:30:12.601Z,32.50
2018-12-21T06:32:42.327Z,35.93
2018-12-21T06:35:12.046Z,46.97
2018-12-21T06:37:41.863Z,51.10
2018-12-21T06:40:11.741Z,32.67
2018-12-21T06:42:41.471Z,33.00
2018-12-21T06:45:11.636Z,29.23
2018-12-21T06:47:41.287Z,45.13
2018-12-21T06:50:11.006Z,42.67
2018-12-21T06:52:40.613Z,43.63
2018-12-21T06:55:10.236Z,46.23
2018-12-21T06:57:39.964Z,34.77
2018-12-21T07:00:12.302Z,55.87
2018-12-21T07:02:42.470Z,71.73
2018-12-21T07:05:12.068Z,45.80
2018-12-21T07:07:41.699Z,53.67
2018-12-21T07:10:12.770Z,55.40
2018-12-21T07:12:43.161Z,36.63
2018-12-21T07:15:12.897Z,54.77
2018-12-21T07:17:42.682Z,39.50
2018-12-21T07:20:12.487Z,36.70
2018-12-21T07:22:42.079Z,73.20
2018-12-21T07:25:11.849Z,52.10
2018-12-21T07:27:41.638Z,34.50
2018-12-21T07:30:12.907Z,62.77
2018-12-21T07:32:43.513Z,41.17
2018-12-21T07:35:16.088Z,33.47
2018-12-21T07:37:46.072Z,47.53
2018-12-21T07:40:15.803Z,57.57
2018-12-21T07:42:46.267Z,56.23
2018-12-21T07:45:16.423Z,56.93
2018-12-21T07:47:46.226Z,62.50
2018-12-21T07:50:15.976Z,67.13
2018-12-21T07:52:46.663Z,52.37
2018-12-21T07:55:16.461Z,67.30
2018-12-21T07:57:46.191Z,66.83
2018-12-21T08:00:16.002Z,56.40
2018-12-21T08:02:45.698Z,81.40
2018-12-21T08:05:15.351Z,61.50
2018-12-21T08:07:45.035Z,53.53
2018-12-21T08:10:18.753Z,65.33
2018-12-21T08:12:48.976Z,54.67
2018-12-21T08:15:18.678Z,57.23
2018-12-21T08:17:48.295Z,57.17
2018-12-21T08:20:18.145Z,49.47
2018-12-21T08:22:47.806Z,51.37
2018-12-21T08:25:17.623Z,55.73
2018-12-21T08:27:47.366Z,58.77
2018-12-21T08:30:17.181Z,64.37
2018-12-21T08:32:46.897Z,55.67
2018-12-21T08:35:16.625Z,76.00
2018-12-21T08:37:46.420Z,50.00
2018-12-21T08:40:16.154Z,64.27
2018-12-21T08:42:45.889Z,68.20
2018-12-21T08:45:15.646Z,47.70
2018-12-21T08:47:45.540Z,66.57
2018-12-21T08:50:15.358Z,90.43
2018-12-21T08:52:45.083Z,60.53
2018-12-21T08:55:14.924Z,77.60
2018-12-21T08:57:44.512Z,85.10
2018-12-21T09:00:14.615Z,73.13
2018-12-21T09:02:44.523Z,94.00
2018-12-21T09:05:14.275Z,110.03
2018-12-21T09:07:43.948Z,77.27
2018-12-21T09:10:13.684Z,71.67
2018-12-21T09:12:43.588Z,66.73
2018-12-21T09:15:17.776Z,71.10
2018-12-21T09:17:47.502Z,75.90
2018-12-21T09:20:17.255Z,75.60
2018-12-21T09:22:48.039Z,73.60
2018-12-21T09:25:17.747Z,100.53
2018-12-21T09:27:47.326Z,70.43
2018-12-21T09:30:17.064Z,66.33
2018-12-21T09:32:46.824Z,74.93
2018-12-21T09:35:16.361Z,81.90
2018-12-21T09:37:45.924Z,64.47
2018-12-21T09:40:15.594Z,86.43
2018-12-21T09:42:45.258Z,77.83
2018-12-21T09:45:15.027Z,84.10
2018-12-21T09:47:44.796Z,57.53
2018-12-21T09:50:14.809Z,55.80
2018-12-21T09:52:44.572Z,71.33
2018-12-21T09:55:14.372Z,90.40
2018-12-21T09:57:44.088Z,64.37
2018-12-21T10:00:14.310Z,60.07
2018-12-21T10:02:44.007Z,55.00
2018-12-21T10:05:16.041Z,57.97
2018-12-21T10:07:45.946Z,65.97
2018-12-21T10:10:15.817Z,65.10
2018-12-21T10:12:45.828Z,59.27
2018-12-21T10:15:15.496Z,56.37
2018-12-21T10:17:45.118Z,78.17
2018-12-21T10:20:14.893Z,62.63
2018-12-21T10:22:44.610Z,61.70
2018-12-21T10:25:14.251Z,64.20
2018-12-21T10:27:44.039Z,74.03
2018-12-21T10:30:13.875Z,71.83
2018-12-21T10:32:43.572Z,56.33
2018-12-21T10:35:13.394Z,70.27
2018-12-21T10:37:43.187Z,63.73
2018-12-21T10:40:12.986Z,89.53
2018-12-21T10:42:42.820Z,80.67
2018-12-21T10:45:12.556Z,70.83
2018-12-21T10:47:42.288Z,89.10
2018-12-21T10:50:13.058Z,91.93
2018-12-21T10:52:43.051Z,85.57
2018-12-21T10:55:12.735Z,92.10
2018-12-21T10:57:42.462Z,96.33
2018-12-21T11:00:13.862Z,106.03
2018-12-21T11:02:44.494Z,107.53
2018-12-21T11:05:14.874Z,89.63
2018-12-21T11:07:44.880Z,137.77
2018-12-21T11:10:14.710Z,213.63
2018-12-21T11:12:45.462Z,85.27
2018-12-21T11:15:15.066Z,123.20
2018-12-21T11:17:44.762Z,90.43
2018-12-21T11:20:14.569Z,115.20
2018-12-21T11:22:44.427Z,80.80
2018-12-21T11:25:14.862Z,78.80
2018-12-21T11:27:44.614Z,100.50
2018-12-21T11:30:14.392Z,88.40
2018-12-21T11:32:44.044Z,87.00
2018-12-21T11:35:13.729Z,81.30
2018-12-21T11:37:43.468Z,94.63
2018-12-21T11:40:13.218Z,93.30
2018-12-21T11:42:42.906Z,71.20
2018-12-21T11:45:12.663Z,82.57
2018-12-21T11:47:42.484Z,94.70
2018-12-21T11:50:12.923Z,94.37
2018-12-21T11:52:42.794Z,119.53
2018-12-21T11:55:13.106Z,86.13
2018-12-21T11:57:42.722Z,79.57
2018-12-21T12:00:12.517Z,81.30
2018-12-21T12:02:42.246Z,91.40
2018-12-21T12:05:12.031Z,80.80
2018-12-21T12:07:41.741Z,86.50
2018-12-21T12:10:11.569Z,96.23
2018-12-21T12:12:41.214Z,98.27
2018-12-21T12:15:10.994Z,116.60
2018-12-21T12:17:40.706Z,110.60
2018-12-21T12:20:10.374Z,111.43
2018-12-21T12:22:40.309Z,121.33
2018-12-21T12:25:10.116Z,99.20
2018-12-21T12:27:39.759Z,97.87
2018-12-21T12:30:11.399Z,111.73
2018-12-21T12:32:41.867Z,111.83
2018-12-21T12:35:11.631Z,103.97
2018-12-21T12:37:41.358Z,90.37
2018-12-21T12:40:11.110Z,93.23
2018-12-21T12:42:40.987Z,97.57
2018-12-21T12:45:10.897Z,95.30
2018-12-21T12:47:40.660Z,82.93
2018-12-21T12:50:10.734Z,74.03
2018-12-21T12:52:40.586Z,102.23
2018-12-21T12:55:10.475Z,77.63
2018-12-21T12:57:40.600Z,78.90
2018-12-21T13:00:12.988Z,64.27
2018-12-21T13:02:42.749Z,73.33
2018-12-21T13:05:12.533Z,68.23
2018-12-21T13:12:34.084Z,83.83
2018-12-21T13:15:03.813Z,78.30
2018-12-21T13:17:33.566Z,70.37
2018-12-21T13:20:03.337Z,60.47
2018-12-21T13:22:33.050Z,50.03
2018-12-21T13:25:11.234Z,62.67
2018-12-21T13:27:34.678Z,81.30
2018-12-21T13:30:07.109Z,61.73
2018-12-21T13:32:36.816Z,74.20
2018-12-21T13:35:07.596Z,70.63
2018-12-21T13:37:37.565Z,98.87
2018-12-21T13:40:11.311Z,68.17
2018-12-21T13:42:41.134Z,87.73
2018-12-21T13:45:12.187Z,69.53
2018-12-21T13:47:41.997Z,64.37
2018-12-21T13:50:14.698Z,61.13
2018-12-21T13:52:44.469Z,98.80
2018-12-21T13:55:20.279Z,92.90
2018-12-21T13:57:46.290Z,76.43
2018-12-21T14:00:17.002Z,58.57
2018-12-21T14:02:46.692Z,64.10
2018-12-21T14:05:16.464Z,59.80
2018-12-21T14:07:46.215Z,70.93
2018-12-21T14:10:15.959Z,59.37
2018-12-21T14:12:45.797Z,45.73
2018-12-21T14:15:15.511Z,62.57
2018-12-21T14:17:45.315Z,83.00
2018-12-21T14:20:15.077Z,69.73
2018-12-21T14:22:44.799Z,120.10
2018-12-21T14:25:14.581Z,65.33
2018-12-21T14:27:44.342Z,62.90
2018-12-21T14:30:14.195Z,81.30
2018-12-21T14:32:43.994Z,91.30
2018-12-21T14:35:13.663Z,88.10
2018-12-21T14:37:43.372Z,102.70
2018-12-21T14:40:13.047Z,111.93
2018-12-21T14:42:42.882Z,101.30
2018-12-21T14:45:12.587Z,93.37
2018-12-21T14:47:42.393Z,100.20
2018-12-21T14:50:12.785Z,114.80
2018-12-21T14:52:42.523Z,106.70
2018-12-21T14:55:12.290Z,106.10
2018-12-21T14:57:42.025Z,123.97
2018-12-21T15:00:14.596Z,131.70
2018-12-21T15:02:44.763Z,133.13
2018-12-21T15:05:14.432Z,128.57
2018-12-21T15:07:44.103Z,126.50
2018-12-21T15:10:13.946Z,95.70
2018-12-21T15:12:43.675Z,115.87
2018-12-21T15:15:13.560Z,135.90
2018-12-21T15:17:43.367Z,105.30
2018-12-21T15:20:13.171Z,117.00
2018-12-21T15:22:43.030Z,123.43
2018-12-21T15:25:12.763Z,158.17
2018-12-21T15:27:42.540Z,131.90
2018-12-21T15:30:13.084Z,123.03
2018-12-21T15:32:43.055Z,148.83
2018-12-21T15:35:12.919Z,127.57
2018-12-21T15:37:42.707Z,129.63
2018-12-21T15:40:13.304Z,143.60
2018-12-21T15:42:43.132Z,145.63
2018-12-21T15:45:12.939Z,124.97
2018-12-21T15:47:42.589Z,183.80
2018-12-21T15:50:13.386Z,191.87
2018-12-21T15:52:43.781Z,190.30
2018-12-21T15:55:14.476Z,185.50
2018-12-21T15:57:44.261Z,194.80
2018-12-21T16:00:16.819Z,194.67
2018-12-21T16:02:50.033Z,309.60
2018-12-21T16:05:19.814Z,224.97
2018-12-21T16:07:51.115Z,199.67
2018-12-21T16:10:21.956Z,143.67
2018-12-21T16:12:51.905Z,152.30
2018-12-21T16:15:21.502Z,161.90
2018-12-21T16:17:51.367Z,145.47
2018-12-21T16:20:21.360Z,154.53
2018-12-21T16:22:54.882Z,226.90
2018-12-21T16:25:24.589Z,152.63
2018-12-21T16:27:54.434Z,220.40
2018-12-21T16:30:24.625Z,192.77
2018-12-21T16:32:54.435Z,187.77
2018-12-21T16:35:24.233Z,184.60
2018-12-21T16:37:54.129Z,193.20
2018-12-21T16:40:23.914Z,232.87
2018-12-21T16:42:53.854Z,247.47
2018-12-21T16:45:23.707Z,212.73
2018-12-21T16:47:53.534Z,192.93
2018-12-21T16:50:23.308Z,202.07
2018-12-21T16:52:53.066Z,171.87
2018-12-21T16:55:22.873Z,168.50
2018-12-21T16:57:52.632Z,167.33
2018-12-21T17:00:22.656Z,158.93
2018-12-21T17:02:52.445Z,155.63
2018-12-21T17:05:22.322Z,168.80
2018-12-21T17:07:52.072Z,161.07
2018-12-21T17:10:24.012Z,155.70
2018-12-21T17:12:53.719Z,172.03
2018-12-21T17:15:23.464Z,166.73
2018-12-21T17:17:53.165Z,223.17
2018-12-21T17:20:23.007Z,230.80
2018-12-21T17:22:52.597Z,201.27
2018-12-21T17:25:22.358Z,189.13
2018-12-21T17:27:51.980Z,198.10
2018-12-21T17:30:21.623Z,214.20
2018-12-21T17:32:51.214Z,220.43
2018-12-21T17:35:20.951Z,237.30
2018-12-21T17:37:50.642Z,225.40
2018-12-21T17:40:20.258Z,197.67
2018-12-21T17:42:50.831Z,193.17
2018-12-21T17:45:20.577Z,192.33
2018-12-21T17:47:50.229Z,155.53
2018-12-21T17:50:20.041Z,152.20
2018-12-21T17:52:49.871Z,157.33
2018-12-21T17:55:19.564Z,162.07
2018-12-21T17:57:49.362Z,152.53
2018-12-21T18:00:21.597Z,161.23
2018-12-21T18:02:54.153Z,155.40
2018-12-21T18:05:24.740Z,192.40
2018-12-21T18:07:55.681Z,236.93
2018-12-21T18:10:26.504Z,275.80
2018-12-21T18:12:56.224Z,224.30
2018-12-21T18:15:25.850Z,235.13
2018-12-21T18:17:55.521Z,261.00
2018-12-21T18:20:25.436Z,241.23
2018-12-21T18:22:55.345Z,205.03
2018-12-21T18:25:28.934Z,176.90
2018-12-21T18:28:10.560Z,223.87
2018-12-21T18:30:41.599Z,283.23
2018-12-21T18:33:13.452Z,245.70
2018-12-21T18:35:43.358Z,255.60
2018-12-21T18:38:16.665Z,240.20
2018-12-21T18:40:47.644Z,187.10
2018-12-21T18:43:17.348Z,200.67
2018-12-21T18:45:47.059Z,188.87
2018-12-21T18:48:16.832Z,192.43
2018-12-21T18:50:48.505Z,182.50
2018-12-21T18:53:18.252Z,207.30
2018-12-21T18:55:50.535Z,212.47
2018-12-21T18:58:20.521Z,198.43
2018-12-21T19:00:50.822Z,188.50
2018-12-21T19:03:20.916Z,174.67
2018-12-21T19:05:50.678Z,212.63
2018-12-21T19:08:20.461Z,183.67
2018-12-21T19:10:50.350Z,175.80
2018-12-21T19:13:20.151Z,190.77
2018-12-21T19:15:50.193Z,192.10
2018-12-21T19:18:20.019Z,290.93
2018-12-21T19:20:49.837Z,182.57
2018-12-21T19:23:19.502Z,221.73
2018-12-21T19:25:49.097Z,196.77
2018-12-21T19:28:18.836Z,221.67
2018-12-21T19:30:48.600Z,207.33
2018-12-21T19:33:18.350Z,246.00
2018-12-21T19:35:48.134Z,179.20
2018-12-21T19:38:17.877Z,166.80
2018-12-21T19:40:47.459Z,150.73
2018-12-21T19:43:17.229Z,158.30
2018-12-21T19:45:47.040Z,173.23
2018-12-21T19:48:16.769Z,177.40
2018-12-21T19:50:46.529Z,220.27
2018-12-21T19:53:16.259Z,192.17
2018-12-21T19:56:01.617Z,170.93
2018-12-21T19:58:31.396Z,182.87
2018-12-21T20:01:01.820Z,295.17
2018-12-21T20:03:31.960Z,247.77
2018-12-21T20:06:01.716Z,197.70
2018-12-21T20:08:31.517Z,282.67
2018-12-21T20:11:01.267Z,313.90
2018-12-21T20:13:30.972Z,212.63
2018-12-21T20:16:00.752Z,228.63
2018-12-21T20:18:30.597Z,242.27
2018-12-21T20:21:00.401Z,221.40
2018-12-21T20:23:30.208Z,214.90
2018-12-21T20:26:00.919Z,249.93
2018-12-21T20:28:30.678Z,198.30
2018-12-21T20:31:00.935Z,172.50
2018-12-21T20:33:30.653Z,331.83
2018-12-21T20:36:00.467Z,239.10
2018-12-21T20:38:30.187Z,194.90
2018-12-21T20:41:01.934Z,175.33
2018-12-21T20:43:31.718Z,212.07
2018-12-21T20:46:01.474Z,180.30
2018-12-21T20:48:31.216Z,184.90
2018-12-21T20:51:01.383Z,178.67
2018-12-21T20:53:31.034Z,211.33
2018-12-21T20:56:00.750Z,237.83
2018-12-21T20:58:37.949Z,216.23
2018-12-21T21:01:07.929Z,154.87
2018-12-21T21:03:37.973Z,195.63
2018-12-21T21:06:07.825Z,236.63
2018-12-21T21:08:37.790Z,151.20
2018-12-21T21:11:07.616Z,160.93
2018-12-21T21:13:37.458Z,156.53
2018-12-21T21:16:07.218Z,139.70
2018-12-21T21:18:36.995Z,128.70
2018-12-21T21:21:06.811Z,147.13
2018-12-21T21:23:36.467Z,129.43
2018-12-21T21:26:06.143Z,178.07
2018-12-21T21:28:35.771Z,110.17
2018-12-21T21:31:05.382Z,81.73
2018-12-21T21:33:35.093Z,91.57
2018-12-21T21:36:04.945Z,140.57
2018-12-21T21:38:34.712Z,127.60
2018-12-21T21:41:04.472Z,160.83
2018-12-21T21:43:34.134Z,125.30
2018-12-21T21:46:03.993Z,84.50
2018-12-21T21:48:33.634Z,106.93
2018-12-21T21:51:03.331Z,90.07
2018-12-21T21:53:33.069Z,104.17
2018-12-21T21:56:02.837Z,116.20
2018-12-21T21:58:32.644Z,86.50
2018-12-21T22:01:02.355Z,80.17
2018-12-21T22:03:32.073Z,79.27
2018-12-21T22:06:02.135Z,83.77
2018-12-21T22:08:31.860Z,87.63
2018-12-21T22:11:02.032Z,141.63
2018-12-21T22:13:32.052Z,96.60
2018-12-21T22:16:01.750Z,75.73
2018-12-21T22:18:31.524Z,64.10
2018-12-21T22:21:01.352Z,67.83
2018-12-21T22:23:31.070Z,76.27
2018-12-21T22:26:00.749Z,72.03
2018-12-21T22:28:30.449Z,117.20
2018-12-21T22:31:00.429Z,147.13
2018-12-21T22:33:30.210Z,64.93
2018-12-21T22:35:59.960Z,111.73
2018-12-21T22:38:29.539Z,65.67
2018-12-21T22:40:59.258Z,86.50
2018-12-21T22:43:28.927Z,111.10
2018-12-21T22:45:58.592Z,83.20
2018-12-21T22:48:28.264Z,92.93
2018-12-21T22:50:57.990Z,80.00
2018-12-21T22:53:27.640Z,159.97
2018-12-21T22:55:57.432Z,116.97
2018-12-21T22:58:27.159Z,102.87
2018-12-21T23:00:56.967Z,148.90
2018-12-21T23:03:26.687Z,111.60
2018-12-21T23:05:56.335Z,148.33
2018-12-21T23:08:26.120Z,107.30
2018-12-21T23:10:55.910Z,176.17
2018-12-21T23:13:25.735Z,92.00
2018-12-21T23:15:55.505Z,147.77
2018-12-21T23:18:25.140Z,91.80
2018-12-21T23:20:54.909Z,160.83
2018-12-21T23:23:24.652Z,94.73
2018-12-21T23:25:54.384Z,77.77
2018-12-21T23:28:24.089Z,133.20
2018-12-21T23:30:53.820Z,68.90
2018-12-21T23:33:23.545Z,101.20
2018-12-21T23:35:53.131Z,89.63
2018-12-21T23:38:22.877Z,91.43
2018-12-21T23:40:52.711Z,249.80
2018-12-21T23:43:22.463Z,84.53
2018-12-21T23:45:52.140Z,76.27
2018-12-21T23:48:21.904Z,57.80
2018-12-21T23:50:51.658Z,77.00
2018-12-21T23:53:21.517Z,107.77
2018-12-21T23:55:51.273Z,66.67
2018-12-21T23:58:21.080Z,70.27
